createdAt,value
2022-12-26T00:03:59.890Z,100874.44
2022-12-26T00:08:02.077Z,100871.13
2022-12-26T00:12:03.990Z,100869.03
2022-12-26T00:16:08.122Z,100872.09
2022-12-26T00:20:10.342Z,100870.75
2022-12-26T00:24:12.432Z,100847.31
2022-12-26T00:28:14.091Z,100844.91
2022-12-26T00:32:16.131Z,100837.31
2022-12-26T00:36:21.226Z,100847.97
2022-12-26T00:40:24.407Z,100832.78
2022-12-26T00:44:26.329Z,100835.88
2022-12-26T00:48:28.990Z,100830.38
2022-12-26T00:52:30.628Z,100820.16
2022-12-26T00:56:32.826Z,100833.22
2022-12-26T01:00:35.240Z,100840.19
2022-12-26T01:04:37.201Z,100835.44
2022-12-26T01:08:39.303Z,100815.78
2022-12-26T01:12:41.593Z,100802.47
2022-12-26T01:16:45.209Z,100806.72
2022-12-26T01:20:47.812Z,100778.81
2022-12-26T01:24:49.415Z,100772.94
2022-12-26T01:28:53.093Z,100772.59
2022-12-26T01:32:54.758Z,100778.72
2022-12-26T01:36:56.866Z,100768.53
2022-12-26T01:41:16.977Z,100758.53
2022-12-26T01:45:29.712Z,100750.88
2022-12-26T01:49:37.738Z,100759.72
2022-12-26T01:53:45.466Z,100774.94
2022-12-26T01:57:58.098Z,100760.19
2022-12-26T02:02:00.832Z,100754.91
2022-12-26T02:06:03.120Z,100740.16
2022-12-26T02:10:10.362Z,100737.41
2022-12-26T02:14:12.603Z,100748.38
2022-12-26T02:18:14.547Z,100753.91
2022-12-26T02:22:48.279Z,100748.31
2022-12-26T02:27:11.471Z,100747.50
2022-12-26T02:31:16.068Z,100734.75
2022-12-26T02:35:42.713Z,100717.13
2022-12-26T02:40:04.544Z,100695.34
2022-12-26T02:44:40.944Z,100701.78
2022-12-26T02:48:55.119Z,100696.59
2022-12-26T02:53:36.835Z,100678.38
2022-12-26T02:58:15.734Z,100675.03
2022-12-26T03:02:46.772Z,100686.22
2022-12-26T03:07:15.855Z,100677.81
2022-12-26T03:11:41.504Z,100681.94
2022-12-26T03:16:14.075Z,100671.06
2022-12-26T03:20:19.978Z,100643.09
2022-12-26T03:24:22.763Z,100649.88
2022-12-26T03:28:26.175Z,100648.84
2022-12-26T03:32:27.826Z,100619.78
2022-12-26T03:37:02.541Z,100634.22
2022-12-26T03:41:39.739Z,100607.91
2022-12-26T03:46:00.362Z,100601.94
2022-12-26T03:50:52.761Z,100598.50
2022-12-26T03:55:22.941Z,100579.44
2022-12-26T03:59:52.352Z,100552.81
2022-12-26T04:04:16.509Z,100553.03
2022-12-26T04:08:45.058Z,100552.28
2022-12-26T04:13:07.708Z,100536.34
2022-12-26T04:17:38.712Z,100542.91
2022-12-26T04:22:22.250Z,100565.31
2022-12-26T04:26:51.131Z,100558.81
2022-12-26T04:31:17.445Z,100538.88
2022-12-26T04:35:44.914Z,100530.19
2022-12-26T04:40:08.009Z,100509.41
2022-12-26T04:44:14.748Z,100505.16
2022-12-26T04:48:35.078Z,100491.06
2022-12-26T04:52:55.192Z,100483.25
2022-12-26T04:56:58.085Z,100485.69
2022-12-26T05:01:18.330Z,100476.22
2022-12-26T05:05:38.662Z,100471.66
2022-12-26T05:09:40.421Z,100446.56
2022-12-26T05:13:42.509Z,100432.22
2022-12-26T05:18:03.115Z,100442.13
2022-12-26T05:22:24.344Z,100433.81
2022-12-26T05:26:44.849Z,100420.78
2022-12-26T05:30:46.987Z,100416.66
2022-12-26T05:34:48.699Z,100402.97
2022-12-26T05:38:51.401Z,100392.06
2022-12-26T05:42:53.059Z,100366.16
2022-12-26T05:46:55.093Z,100360.94
2022-12-26T05:51:00.867Z,100369.19
2022-12-26T05:55:02.961Z,100386.59
2022-12-26T05:59:04.732Z,100382.22
2022-12-26T06:03:06.861Z,100406.91
2022-12-26T06:07:08.678Z,100387.41
2022-12-26T06:11:12.727Z,100387.59
2022-12-26T06:15:14.480Z,100376.97
2022-12-26T06:19:16.435Z,100355.00
2022-12-26T06:23:18.120Z,100348.66
2022-12-26T06:27:20.143Z,100345.44
2022-12-26T06:31:23.543Z,100371.81
2022-12-26T06:35:25.631Z,100389.53
2022-12-26T06:39:27.276Z,100375.34
2022-12-26T06:43:29.173Z,100347.59
2022-12-26T06:47:31.569Z,100351.88
2022-12-26T06:51:33.599Z,100356.13
2022-12-26T06:55:35.327Z,100337.84
2022-12-26T06:59:37.280Z,100315.38
2022-12-26T07:03:43.167Z,100300.88
2022-12-26T07:07:52.360Z,100301.19
2022-12-26T07:11:56.343Z,100279.94
2022-12-26T07:16:01.301Z,100326.78
2022-12-26T07:20:04.880Z,100313.91
2022-12-26T07:24:08.840Z,100287.69
2022-12-26T07:28:10.734Z,100288.97
2022-12-26T07:32:13.006Z,100282.31
2022-12-26T07:36:14.913Z,100267.94
2022-12-26T07:40:16.871Z,100272.44
2022-12-26T07:44:18.638Z,100267.66
2022-12-26T07:48:20.824Z,100270.97
2022-12-26T07:52:23.142Z,100287.94
2022-12-26T07:56:25.108Z,100261.91
2022-12-26T08:00:26.836Z,100278.31
2022-12-26T08:04:29.652Z,100290.84
2022-12-26T08:08:31.418Z,100281.31
2022-12-26T08:12:34.318Z,100255.06
2022-12-26T08:16:36.092Z,100232.59
2022-12-26T08:20:38.109Z,100247.22
2022-12-26T08:24:39.778Z,100225.44
2022-12-26T08:28:41.851Z,100257.31
2022-12-26T08:32:46.350Z,100251.13
2022-12-26T08:36:52.189Z,100230.53
2022-12-26T08:40:56.135Z,100216.16
2022-12-26T08:44:58.388Z,100222.72
2022-12-26T08:49:00.751Z,100224.50
2022-12-26T08:53:03.251Z,100199.31
2022-12-26T08:57:04.877Z,100222.16
2022-12-26T09:01:08.169Z,100204.16
2022-12-26T09:05:10.053Z,100192.84
2022-12-26T09:09:12.761Z,100189.53
2022-12-26T09:13:14.453Z,100184.44
2022-12-26T09:17:17.270Z,100192.13
2022-12-26T09:21:19.817Z,100192.28
2022-12-26T09:25:24.465Z,100199.63
2022-12-26T09:29:26.281Z,100181.53
2022-12-26T09:33:29.416Z,100170.31
2022-12-26T09:37:31.129Z,100166.28
2022-12-26T09:41:48.351Z,100161.13
2022-12-26T09:46:00.723Z,100156.94
2022-12-26T09:50:09.339Z,100161.88
2022-12-26T09:54:21.064Z,100162.88
2022-12-26T09:58:47.321Z,100162.03
2022-12-26T10:02:53.718Z,100163.50
2022-12-26T10:07:18.737Z,100168.44
2022-12-26T10:11:29.380Z,100154.56
2022-12-26T10:15:39.950Z,100136.47
2022-12-26T10:20:00.267Z,100138.22
2022-12-26T10:24:27.322Z,100127.19
2022-12-26T10:28:40.221Z,100126.75
2022-12-26T10:32:45.869Z,100129.06
2022-12-26T10:36:55.077Z,100106.44
2022-12-26T10:41:03.554Z,100097.84
2022-12-26T10:45:13.919Z,100094.59
2022-12-26T10:49:18.647Z,100084.63
2022-12-26T10:53:22.054Z,100082.78
2022-12-26T10:57:25.027Z,100074.34
2022-12-26T11:01:39.338Z,100051.63
2022-12-26T11:06:09.193Z,100059.41
2022-12-26T11:10:29.521Z,100057.28
2022-12-26T11:14:38.421Z,100063.13
2022-12-26T11:18:50.175Z,100066.16
2022-12-26T11:22:52.514Z,100055.00
2022-12-26T11:27:19.067Z,100045.34
2022-12-26T11:31:28.008Z,100042.63
2022-12-26T11:35:37.043Z,100046.41
2022-12-26T11:39:38.960Z,100047.94
2022-12-26T11:43:40.909Z,100042.44
2022-12-26T11:47:45.725Z,100041.09
2022-12-26T11:51:55.475Z,100035.59
2022-12-26T11:56:03.951Z,100027.59
2022-12-26T12:00:19.830Z,100034.38
2022-12-26T12:04:21.458Z,100012.81
2022-12-26T12:09:17.952Z,100004.13
2022-12-26T12:13:19.842Z,99996.06
2022-12-26T12:17:28.326Z,100005.03
2022-12-26T12:21:43.997Z,100002.31
2022-12-26T12:25:58.137Z,100004.00
2022-12-26T12:30:16.842Z,100010.97
2022-12-26T12:34:23.655Z,100013.97
2022-12-26T12:38:31.077Z,100016.56
2022-12-26T12:42:53.175Z,100024.72
2022-12-26T12:47:17.426Z,100015.00
2022-12-26T12:51:52.624Z,100013.84
2022-12-26T12:56:21.099Z,100010.88
2022-12-26T13:00:26.562Z,100010.38
2022-12-26T13:04:39.976Z,100033.97
2022-12-26T13:08:46.891Z,100029.28
2022-12-26T13:12:50.806Z,100013.91
2022-12-26T13:17:06.517Z,100020.94
2022-12-26T13:21:12.849Z,100021.25
2022-12-26T13:25:14.795Z,100007.25
2022-12-26T13:29:31.957Z,100006.53
2022-12-26T13:33:35.845Z,100017.50
2022-12-26T13:37:37.783Z,100019.31
2022-12-26T13:42:07.010Z,100020.97
2022-12-26T13:46:27.819Z,100009.53
2022-12-26T13:50:55.248Z,100001.03
2022-12-26T13:55:06.739Z,99996.13
2022-12-26T13:59:22.272Z,100003.56
2022-12-26T14:03:45.063Z,100002.97
2022-12-26T14:07:57.644Z,99995.34
2022-12-26T14:12:22.872Z,99998.75
2022-12-26T14:16:37.881Z,100004.97
2022-12-26T14:20:51.720Z,100029.03
2022-12-26T14:25:16.610Z,100042.06
2022-12-26T14:29:31.358Z,100033.59
2022-12-26T14:34:17.571Z,100023.47
2022-12-26T14:39:01.472Z,100009.09
2022-12-26T14:43:12.696Z,100007.22
2022-12-26T14:47:34.431Z,100019.69
2022-12-26T14:51:38.530Z,100038.88
2022-12-26T14:55:53.598Z,100051.78
2022-12-26T15:00:31.470Z,100050.72
2022-12-26T15:04:52.625Z,100045.03
2022-12-26T15:09:14.942Z,100056.78
2022-12-26T15:13:29.594Z,100049.53
2022-12-26T15:17:55.412Z,100045.41
2022-12-26T15:22:27.653Z,100040.34
2022-12-26T15:27:01.339Z,100026.59
2022-12-26T15:31:22.038Z,100034.47
2022-12-26T15:35:29.905Z,100041.06
2022-12-26T15:39:39.833Z,100054.09
2022-12-26T15:44:22.066Z,100061.94
2022-12-26T15:48:24.073Z,100044.28
2022-12-26T15:52:53.294Z,100054.00
2022-12-26T15:57:23.580Z,100064.44
2022-12-26T16:01:45.603Z,100057.59
2022-12-26T16:05:53.344Z,100068.72
2022-12-26T16:09:56.666Z,100071.09
2022-12-26T16:14:01.661Z,100080.22
2022-12-26T16:18:21.673Z,100082.31
2022-12-26T16:22:49.372Z,100076.66
2022-12-26T16:26:51.158Z,100067.19
2022-12-26T16:30:53.415Z,100068.41
2022-12-26T16:34:55.367Z,100065.13
2022-12-26T16:38:57.369Z,100072.94
2022-12-26T16:43:06.045Z,100062.38
2022-12-26T16:47:12.136Z,100078.56
2022-12-26T16:51:37.928Z,100062.75
2022-12-26T16:55:43.293Z,100053.59
2022-12-26T16:59:54.903Z,100054.78
2022-12-26T17:04:19.645Z,100044.69
2022-12-26T17:08:21.574Z,100043.41
2022-12-26T17:12:34.421Z,100042.41
2022-12-26T17:16:36.243Z,100030.59
2022-12-26T17:20:39.090Z,100028.16
2022-12-26T17:24:46.542Z,100039.50
2022-12-26T17:28:48.970Z,100044.84
2022-12-26T17:32:50.726Z,100048.03
2022-12-26T17:37:18.423Z,100050.00
2022-12-26T17:41:17.546Z,100042.13
2022-12-26T17:45:25.101Z,100050.38
2022-12-26T17:49:26.950Z,100052.16
2022-12-26T17:53:37.842Z,100051.41
2022-12-26T17:57:39.632Z,100052.72
2022-12-26T18:01:41.685Z,100034.25
2022-12-26T18:05:45.485Z,100041.84
2022-12-26T18:09:48.548Z,100052.22
2022-12-26T18:13:50.227Z,100043.44
2022-12-26T18:17:53.132Z,100065.44
2022-12-26T18:21:54.867Z,100053.66
2022-12-26T18:26:00.384Z,100065.53
2022-12-26T18:30:02.256Z,100071.16
2022-12-26T18:34:04.337Z,100074.50
2022-12-26T18:38:06.534Z,100069.31
2022-12-26T18:42:13.652Z,100074.91
2022-12-26T18:46:22.941Z,100055.22
2022-12-26T18:50:25.051Z,100070.78
2022-12-26T18:54:26.765Z,100079.66
2022-12-26T18:58:28.754Z,100072.09
2022-12-26T19:02:30.590Z,100070.50
2022-12-26T19:06:35.122Z,100079.66
2022-12-26T19:10:37.169Z,100086.22
2022-12-26T19:14:40.082Z,100074.72
2022-12-26T19:18:41.803Z,100076.69
2022-12-26T19:22:45.250Z,100075.84
2022-12-26T19:26:46.940Z,100069.31
2022-12-26T19:30:48.950Z,100082.69
2022-12-26T19:34:50.732Z,100087.69
2022-12-26T19:38:54.235Z,100094.66
2022-12-26T19:42:55.936Z,100108.50
2022-12-26T19:47:11.778Z,100115.44
2022-12-26T19:51:16.262Z,100116.94
2022-12-26T19:55:18.433Z,100114.63
2022-12-26T19:59:20.326Z,100118.91
2022-12-26T20:03:22.419Z,100117.69
2022-12-26T20:07:24.126Z,100115.94
2022-12-26T20:11:36.016Z,100112.38
2022-12-26T20:15:37.693Z,100120.97
2022-12-26T20:19:39.654Z,100115.16
2022-12-26T20:23:41.842Z,100112.47
2022-12-26T20:27:44.481Z,100115.63
2022-12-26T20:31:46.247Z,100106.47
2022-12-26T20:35:48.240Z,100118.81
2022-12-26T20:39:49.949Z,100125.47
2022-12-26T20:43:52.174Z,100127.81
2022-12-26T20:47:53.949Z,100125.19
2022-12-26T20:51:55.841Z,100135.63
2022-12-26T20:55:58.945Z,100129.97
2022-12-26T21:00:00.981Z,100131.75
2022-12-26T21:04:03.797Z,100134.88
2022-12-26T21:08:06.304Z,100135.25
2022-12-26T21:12:08.052Z,100153.81
2022-12-26T21:16:22.091Z,100170.09
2022-12-26T21:20:25.387Z,100160.41
2022-12-26T21:24:30.507Z,100155.44
2022-12-26T21:28:33.209Z,100148.22
2022-12-26T21:32:35.198Z,100151.72
2022-12-26T21:36:39.049Z,100160.41
2022-12-26T21:40:43.274Z,100158.44
2022-12-26T21:44:44.997Z,100134.66
2022-12-26T21:48:47.397Z,100131.47
2022-12-26T21:52:49.261Z,100133.19
2022-12-26T21:56:51.232Z,100136.81
2022-12-26T22:00:52.932Z,100138.19
2022-12-26T22:04:55.102Z,100142.44
2022-12-26T22:08:56.850Z,100130.94
2022-12-26T22:12:59.454Z,100132.50
2022-12-26T22:17:01.380Z,100139.44
2022-12-26T22:21:15.173Z,100146.66
2022-12-26T22:25:16.920Z,100161.78
2022-12-26T22:29:18.930Z,100163.25
2022-12-26T22:33:21.087Z,100166.13
2022-12-26T22:37:22.848Z,100146.03
2022-12-26T22:41:25.774Z,100138.53
2022-12-26T22:45:27.412Z,100137.41
2022-12-26T22:49:29.629Z,100132.94
2022-12-26T22:53:32.128Z,100138.34
2022-12-26T22:57:34.216Z,100138.34
2022-12-26T23:01:36.024Z,100162.66
2022-12-26T23:05:39.117Z,100172.53
2022-12-26T23:09:40.976Z,100162.28
2022-12-26T23:13:43.193Z,100155.38
2022-12-26T23:18:28.071Z,100165.03
2022-12-26T23:22:30.420Z,100144.00
2022-12-26T23:26:32.125Z,100152.84
2022-12-26T23:30:34.290Z,100165.66
2022-12-26T23:34:36.421Z,100170.47
2022-12-26T23:38:38.451Z,100155.31
2022-12-26T23:42:40.175Z,100136.72
2022-12-26T23:46:44.463Z,100127.44
2022-12-26T23:50:46.289Z,100117.97
2022-12-26T23:54:48.328Z,100105.38
2022-12-26T23:58:50.009Z,100101.81
